createdAt,value
2019-04-04T00:01:48.824Z,99837.47
2019-04-04T00:04:18.345Z,99841.76
2019-04-04T00:06:46.968Z,99854.42
2019-04-04T00:09:15.578Z,99847.03
2019-04-04T00:11:44.196Z,99844.27
2019-04-04T00:14:13.447Z,99843.25
2019-04-04T00:16:42.110Z,99845.12
2019-04-04T00:19:10.739Z,99839.40
2019-04-04T00:21:39.313Z,99850.31
2019-04-04T00:24:09.173Z,99859.22
2019-04-04T00:26:38.232Z,99858.07
2019-04-04T00:29:06.812Z,99842.69
2019-04-04T00:31:35.390Z,99849.13
2019-04-04T00:34:03.949Z,99865.73
2019-04-04T00:36:34.706Z,99877.42
2019-04-04T00:39:03.709Z,99869.39
2019-04-04T00:41:32.318Z,99852.45
2019-04-04T00:44:00.847Z,99826.93
2019-04-04T00:46:30.969Z,99814.55
2019-04-04T00:49:00.031Z,99813.20
2019-04-04T00:51:28.540Z,99824.95
2019-04-04T00:53:57.184Z,99860.95
2019-04-04T00:56:25.704Z,99849.05
2019-04-04T00:58:54.190Z,99833.16
2019-04-04T01:01:26.036Z,99828.23
2019-04-04T01:03:52.872Z,99818.38
2019-04-04T01:06:21.407Z,99841.02
2019-04-04T01:08:50.010Z,99846.69
2019-04-04T01:11:20.296Z,99847.52
2019-04-04T01:13:49.503Z,99850.30
2019-04-04T01:16:18.101Z,99854.88
2019-04-04T01:18:46.694Z,99860.80
2019-04-04T01:21:15.216Z,99856.42
2019-04-04T01:23:43.752Z,99846.25
2019-04-04T01:26:12.356Z,99861.04
2019-04-04T01:28:40.930Z,99856.88
2019-04-04T01:31:09.549Z,99857.37
2019-04-04T01:33:38.106Z,99851.39
2019-04-04T01:36:06.645Z,99843.64
2019-04-04T01:38:35.146Z,99838.91
2019-04-04T01:41:04.527Z,99828.92
2019-04-04T01:43:33.625Z,99823.23
2019-04-04T01:46:02.179Z,99816.39
2019-04-04T01:48:30.701Z,99819.18
2019-04-04T01:50:59.236Z,99810.27
2019-04-04T01:53:29.855Z,99805.11
2019-04-04T01:55:58.100Z,99820.30
2019-04-04T01:58:26.611Z,99831.42
2019-04-04T02:00:55.286Z,99811.05
2019-04-04T02:03:23.886Z,99801.97
2019-04-04T02:05:52.808Z,99797.42
2019-04-04T02:08:21.422Z,99800.15
2019-04-04T02:10:50.471Z,99802.76
2019-04-04T02:13:19.047Z,99805.04
2019-04-04T02:15:47.559Z,99802.48
2019-04-04T02:18:16.109Z,99799.58
2019-04-04T02:20:44.739Z,99786.63
2019-04-04T02:23:13.266Z,99785.83
2019-04-04T02:25:41.803Z,99785.50
2019-04-04T02:28:10.330Z,99776.05
2019-04-04T02:30:39.004Z,99764.16
2019-04-04T02:33:07.706Z,99771.84
2019-04-04T02:35:36.296Z,99771.35
2019-04-04T02:38:04.910Z,99758.46
2019-04-04T02:40:33.504Z,99759.35
2019-04-04T02:43:02.218Z,99757.33
2019-04-04T02:45:30.811Z,99753.75
2019-04-04T02:47:59.374Z,99749.70
2019-04-04T02:50:27.926Z,99757.20
2019-04-04T02:52:56.480Z,99753.72
2019-04-04T02:55:24.999Z,99766.98
2019-04-04T02:57:53.566Z,99766.27
2019-04-04T03:00:26.448Z,99771.53
2019-04-04T03:02:52.430Z,99771.06
2019-04-04T03:05:21.587Z,99760.97
2019-04-04T03:07:50.292Z,99763.91
2019-04-04T03:10:18.806Z,99766.37
2019-04-04T03:12:47.515Z,99770.46
2019-04-04T03:15:16.211Z,99770.14
2019-04-04T03:17:44.803Z,99773.06
2019-04-04T03:20:16.285Z,99775.84
2019-04-04T03:22:43.729Z,99782.86
2019-04-04T03:25:14.915Z,99785.75
2019-04-04T03:27:42.632Z,99779.95
2019-04-04T03:30:14.864Z,99781.80
2019-04-04T03:32:41.730Z,99774.84
2019-04-04T03:35:10.366Z,99773.91
2019-04-04T03:37:40.984Z,99760.64
2019-04-04T03:40:09.338Z,99751.84
2019-04-04T03:42:37.844Z,99757.80
2019-04-04T03:45:07.032Z,99756.50
2019-04-04T03:47:35.636Z,99756.04
2019-04-04T03:50:05.915Z,99772.15
2019-04-04T03:52:34.402Z,99767.69
2019-04-04T03:55:03.101Z,99764.52
2019-04-04T03:57:31.647Z,99773.31
2019-04-04T04:00:00.122Z,99778.60
2019-04-04T04:02:29.560Z,99792.95
2019-04-04T04:05:01.003Z,99785.35
2019-04-04T04:07:28.450Z,99785.97
2019-04-04T04:09:59.660Z,99796.94
2019-04-04T04:12:27.455Z,99782.97
2019-04-04T04:14:56.009Z,99783.27
2019-04-04T04:17:24.629Z,99779.14
2019-04-04T04:19:53.280Z,99776.62
2019-04-04T04:22:22.816Z,99764.37
2019-04-04T04:24:51.454Z,99762.23
2019-04-04T04:27:19.965Z,99760.55
2019-04-04T04:29:48.471Z,99756.64
2019-04-04T04:32:21.095Z,99759.26
2019-04-04T04:34:47.168Z,99761.02
2019-04-04T04:37:20.085Z,99757.01
2019-04-04T04:39:45.884Z,99751.98
2019-04-04T04:42:14.438Z,99747.06
2019-04-04T04:44:42.942Z,99742.29
2019-04-04T04:47:11.495Z,99739.98
2019-04-04T04:49:39.999Z,99741.16
2019-04-04T04:52:08.467Z,99742.52
2019-04-04T04:54:36.995Z,99751.03
2019-04-04T04:57:05.560Z,99754.59
2019-04-04T04:59:34.102Z,99757.45
2019-04-04T05:02:02.732Z,99746.91
2019-04-04T05:04:31.258Z,99755.72
2019-04-04T05:06:59.765Z,99750.41
2019-04-04T05:09:28.231Z,99760.14
2019-04-04T05:11:56.759Z,99753.67
2019-04-04T05:14:25.223Z,99750.23
2019-04-04T05:16:53.768Z,99756.45
2019-04-04T05:19:22.340Z,99759.52
2019-04-04T05:21:50.959Z,99755.00
2019-04-04T05:24:19.571Z,99752.31
2019-04-04T05:26:48.150Z,99745.72
2019-04-04T05:29:16.896Z,99749.45
2019-04-04T05:31:45.471Z,99755.47
2019-04-04T05:34:14.127Z,99774.95
2019-04-04T05:36:42.654Z,99782.63
2019-04-04T05:39:11.131Z,99776.75
2019-04-04T05:41:39.637Z,99766.56
2019-04-04T05:44:09.954Z,99766.70
2019-04-04T05:46:38.591Z,99786.98
2019-04-04T05:49:08.292Z,99792.80
2019-04-04T05:51:37.049Z,99789.08
2019-04-04T05:54:07.529Z,99783.61
2019-04-04T05:56:36.004Z,99784.95
2019-04-04T05:59:04.610Z,99774.38
2019-04-04T06:01:35.330Z,99756.80
2019-04-04T06:04:04.111Z,99758.22
2019-04-04T06:06:33.478Z,99774.13
2019-04-04T06:09:04.519Z,99773.73
2019-04-04T06:11:33.204Z,99774.69
2019-04-04T06:14:01.865Z,99771.52
2019-04-04T06:16:30.454Z,99780.89
2019-04-04T06:18:58.847Z,99783.62
2019-04-04T06:21:27.484Z,99793.40
2019-04-04T06:23:56.672Z,99785.09
2019-04-04T06:26:25.427Z,99785.34
2019-04-04T06:28:53.877Z,99792.49
2019-04-04T06:31:24.144Z,99789.95
2019-04-04T06:33:52.615Z,99796.13
2019-04-04T06:36:21.154Z,99804.30
2019-04-04T06:38:50.066Z,99805.66
2019-04-04T06:41:18.702Z,99799.59
2019-04-04T06:43:47.342Z,99806.43
2019-04-04T06:46:18.986Z,99812.00
2019-04-04T06:48:46.152Z,99814.53
2019-04-04T06:51:15.013Z,99817.23
2019-04-04T06:53:46.649Z,99819.79
2019-04-04T06:56:13.989Z,99815.91
2019-04-04T06:58:42.573Z,99816.31
2019-04-04T07:01:11.357Z,99818.43
2019-04-04T07:03:39.847Z,99817.75
2019-04-04T07:06:10.214Z,99816.66
2019-04-04T07:08:38.703Z,99817.47
2019-04-04T07:11:20.631Z,99817.37
2019-04-04T07:13:42.559Z,99831.73
2019-04-04T07:16:08.305Z,99814.99
2019-04-04T07:18:36.855Z,99820.28
2019-04-04T07:21:05.470Z,99816.89
2019-04-04T07:23:34.096Z,99818.42
2019-04-04T07:26:02.963Z,99819.32
2019-04-04T07:28:31.509Z,99818.94
2019-04-04T07:31:01.771Z,99824.17
2019-04-04T07:33:30.541Z,99826.13
2019-04-04T07:35:59.113Z,99832.16
2019-04-04T07:38:28.697Z,99834.96
2019-04-04T07:40:57.934Z,99832.64
2019-04-04T07:43:26.507Z,99831.22
2019-04-04T07:45:57.442Z,99822.89
2019-04-04T07:48:28.453Z,99830.48
2019-04-04T07:50:58.549Z,99842.45
2019-04-04T07:53:28.322Z,99842.03
2019-04-04T07:55:56.943Z,99845.98
2019-04-04T07:58:26.510Z,99848.31
2019-04-04T08:00:55.134Z,99852.77
2019-04-04T08:03:23.726Z,99850.66
2019-04-04T08:05:52.342Z,99852.25
2019-04-04T08:08:20.947Z,99850.96
2019-04-04T08:10:49.566Z,99852.31
2019-04-04T08:13:18.089Z,99855.19
2019-04-04T08:15:46.619Z,99856.98
2019-04-04T08:18:15.125Z,99863.79
2019-04-04T08:20:43.721Z,99862.85
2019-04-04T08:23:12.305Z,99854.72
2019-04-04T08:25:40.900Z,99855.33
2019-04-04T08:28:09.526Z,99849.37
2019-04-04T08:30:38.105Z,99845.83
2019-04-04T08:33:06.732Z,99843.14
2019-04-04T08:35:35.217Z,99863.07
2019-04-04T08:38:03.751Z,99859.88
2019-04-04T08:40:32.389Z,99862.44
2019-04-04T08:43:00.984Z,99867.48
2019-04-04T08:45:29.638Z,99853.59
2019-04-04T08:47:58.207Z,99847.45
2019-04-04T08:50:27.404Z,99843.92
2019-04-04T08:52:55.935Z,99835.34
2019-04-04T08:55:24.548Z,99849.66
2019-04-04T08:57:53.074Z,99865.12
2019-04-04T09:00:21.684Z,99861.77
2019-04-04T09:02:50.275Z,99856.75
2019-04-04T09:05:18.903Z,99852.02
2019-04-04T09:07:47.424Z,99845.34
2019-04-04T09:10:16.235Z,99838.80
2019-04-04T09:12:44.882Z,99845.07
2019-04-04T09:15:16.008Z,99845.01
2019-04-04T09:17:44.615Z,99850.34
2019-04-04T09:20:13.426Z,99852.65
2019-04-04T09:22:41.958Z,99859.28
2019-04-04T09:25:11.129Z,99855.70
2019-04-04T09:27:39.772Z,99860.73
2019-04-04T09:30:10.632Z,99858.53
2019-04-04T09:32:39.252Z,99867.38
2019-04-04T09:35:08.337Z,99869.44
2019-04-04T09:37:36.954Z,99871.50
2019-04-04T09:40:07.381Z,99871.97
2019-04-04T09:42:36.605Z,99872.72
2019-04-04T09:45:07.734Z,99868.55
2019-04-04T09:47:36.353Z,99870.41
2019-04-04T09:50:06.533Z,99863.37
2019-04-04T09:52:35.091Z,99859.30
2019-04-04T09:55:07.215Z,99865.30
2019-04-04T09:57:35.735Z,99857.03
2019-04-04T10:00:13.108Z,99855.65
2019-04-04T10:02:41.808Z,99859.13
2019-04-04T10:05:11.229Z,99858.27
2019-04-04T10:07:39.823Z,99862.27
2019-04-04T10:10:09.241Z,99873.36
2019-04-04T10:12:37.819Z,99874.77
2019-04-04T10:15:07.917Z,99868.43
2019-04-04T10:17:36.450Z,99873.98
2019-04-04T10:20:07.213Z,99874.32
2019-04-04T10:22:35.842Z,99879.04
2019-04-04T10:25:05.256Z,99877.17
2019-04-04T10:27:33.766Z,99878.22
2019-04-04T10:30:02.488Z,99869.20
2019-04-04T10:32:31.884Z,99865.25
2019-04-04T10:35:00.361Z,99864.09
2019-04-04T10:37:29.898Z,99865.84
2019-04-04T10:39:59.051Z,99866.22
2019-04-04T10:42:27.519Z,99865.22
2019-04-04T10:44:56.153Z,99857.22
2019-04-04T10:47:24.769Z,99860.75
2019-04-04T10:49:53.428Z,99870.36
2019-04-04T10:52:22.052Z,99877.38
2019-04-04T10:54:50.679Z,99866.09
2019-04-04T10:57:19.367Z,99866.83
2019-04-04T10:59:47.938Z,99856.42
2019-04-04T11:02:16.569Z,99850.25
2019-04-04T11:04:45.084Z,99857.69
2019-04-04T11:07:13.652Z,99870.70
2019-04-04T11:09:42.530Z,99877.77
2019-04-04T11:12:11.205Z,99866.72
2019-04-04T11:14:39.782Z,99869.02
2019-04-04T11:17:08.338Z,99878.21
2019-04-04T11:19:37.128Z,99878.02
2019-04-04T11:22:05.899Z,99873.62
2019-04-04T11:24:34.488Z,99882.23
2019-04-04T11:27:03.240Z,99890.41
2019-04-04T11:29:32.320Z,99900.94
2019-04-04T11:32:00.951Z,99893.14
2019-04-04T11:34:29.852Z,99903.86
2019-04-04T11:36:58.473Z,99911.13
2019-04-04T11:39:27.028Z,99906.10
2019-04-04T11:41:55.625Z,99907.20
2019-04-04T11:44:24.137Z,99900.79
2019-04-04T11:46:52.687Z,99902.28
2019-04-04T11:49:21.230Z,99895.38
2019-04-04T11:51:49.838Z,99900.06
2019-04-04T11:54:18.498Z,99890.56
2019-04-04T11:56:47.117Z,99895.99
2019-04-04T11:59:15.666Z,99897.15
2019-04-04T12:01:45.840Z,99910.53
2019-04-04T12:04:14.418Z,99915.88
2019-04-04T12:06:42.998Z,99912.38
2019-04-04T12:09:11.658Z,99918.89
2019-04-04T12:11:40.643Z,99927.01
2019-04-04T12:14:09.045Z,99930.14
2019-04-04T12:16:37.649Z,99933.88
2019-04-04T12:19:06.282Z,99922.09
2019-04-04T12:21:34.890Z,99917.37
2019-04-04T12:24:03.418Z,99920.50
2019-04-04T12:26:32.046Z,99933.80
2019-04-04T12:29:00.637Z,99944.47
2019-04-04T12:31:29.926Z,99944.47
2019-04-04T12:33:58.505Z,99962.02
2019-04-04T12:36:26.993Z,99963.80
2019-04-04T12:38:55.505Z,99960.80
2019-04-04T12:41:24.042Z,99946.08
2019-04-04T12:43:52.688Z,99939.05
2019-04-04T12:46:21.273Z,99938.48
2019-04-04T12:48:49.874Z,99948.45
2019-04-04T12:51:18.505Z,99957.70
2019-04-04T12:53:47.145Z,99947.63
2019-04-04T12:56:15.722Z,99938.81
2019-04-04T12:58:44.219Z,99932.94
2019-04-04T13:01:12.822Z,99928.00
2019-04-04T13:03:41.446Z,99923.98
2019-04-04T13:06:10.023Z,99914.63
2019-04-04T13:08:38.475Z,99933.95
2019-04-04T13:11:07.366Z,99927.65
2019-04-04T13:13:38.220Z,99926.88
2019-04-04T13:16:06.369Z,99939.66
2019-04-04T13:18:34.966Z,99942.55
2019-04-04T13:21:03.578Z,99952.89
2019-04-04T13:23:32.221Z,99952.30
2019-04-04T13:26:01.676Z,99928.35
2019-04-04T13:28:30.217Z,99931.55
2019-04-04T13:30:58.765Z,99941.89
2019-04-04T13:33:27.363Z,99965.91
2019-04-04T13:35:55.876Z,99977.30
2019-04-04T13:38:24.582Z,99976.06
2019-04-04T13:40:53.163Z,99975.40
2019-04-04T13:43:22.526Z,99991.89
2019-04-04T13:45:51.800Z,99997.20
2019-04-04T13:48:20.429Z,99982.12
2019-04-04T13:50:49.143Z,99989.02
2019-04-04T13:53:20.521Z,100001.04
2019-04-04T13:55:48.152Z,99998.78
2019-04-04T13:58:17.658Z,100002.36
2019-04-04T14:00:47.286Z,99999.69
2019-04-04T14:03:18.689Z,100007.33
2019-04-04T14:05:46.275Z,99999.91
2019-04-04T14:08:14.934Z,99998.70
2019-04-04T14:10:43.648Z,100012.78
2019-04-04T14:13:14.514Z,100012.38
2019-04-04T14:15:42.627Z,100015.42
2019-04-04T14:18:23.931Z,100008.88
2019-04-04T14:21:03.398Z,100008.65
2019-04-04T14:23:26.788Z,100018.59
2019-04-04T14:25:55.462Z,100031.48
2019-04-04T14:28:24.402Z,100044.33
2019-04-04T14:30:53.058Z,100055.20
2019-04-04T14:33:21.654Z,100051.34
2019-04-04T14:35:50.306Z,100069.48
2019-04-04T14:38:18.794Z,100070.26
2019-04-04T14:40:47.450Z,100070.72
2019-04-04T14:43:16.049Z,100064.50
2019-04-04T14:45:44.697Z,100052.16
2019-04-04T14:48:13.339Z,100044.13
2019-04-04T14:50:41.866Z,100041.84
2019-04-04T14:53:10.485Z,100046.01
2019-04-04T14:55:39.119Z,100049.83
2019-04-04T14:58:07.683Z,100056.34
2019-04-04T15:00:36.262Z,100048.24
2019-04-04T15:03:05.196Z,100052.77
2019-04-04T15:05:33.753Z,100055.89
2019-04-04T15:08:02.388Z,100056.13
2019-04-04T15:10:30.979Z,100058.50
2019-04-04T15:12:59.619Z,100079.67
2019-04-04T15:15:28.254Z,100090.04
2019-04-04T15:17:56.800Z,100094.24
2019-04-04T15:20:25.425Z,100101.41
2019-04-04T15:22:54.042Z,100094.05
2019-04-04T15:25:22.723Z,100076.95
2019-04-04T15:27:51.304Z,100065.11
2019-04-04T15:30:20.036Z,100054.92
2019-04-04T15:32:48.721Z,100054.56
2019-04-04T15:35:17.410Z,100050.95
2019-04-04T15:37:46.011Z,100046.96
2019-04-04T15:40:14.793Z,100056.85
2019-04-04T15:42:43.483Z,100063.33
2019-04-04T15:45:12.214Z,100065.98
2019-04-04T15:47:43.602Z,100074.78
2019-04-04T15:50:12.282Z,100070.31
2019-04-04T15:52:40.908Z,100075.30
2019-04-04T15:55:09.703Z,100066.81
2019-04-04T15:57:38.331Z,100065.19
2019-04-04T16:00:08.606Z,100065.05
2019-04-04T16:02:37.191Z,100070.94
2019-04-04T16:05:07.518Z,100074.81
2019-04-04T16:07:36.116Z,100080.13
2019-04-04T16:10:07.189Z,100093.95
2019-04-04T16:12:35.898Z,100098.37
2019-04-04T16:15:06.945Z,100096.83
2019-04-04T16:17:35.598Z,100109.42
2019-04-04T16:20:07.156Z,100121.30
2019-04-04T16:22:35.796Z,100133.62
2019-04-04T16:25:06.488Z,100120.01
2019-04-04T16:27:35.586Z,100120.73
2019-04-04T16:30:08.504Z,100113.50
2019-04-04T16:32:37.306Z,100114.31
2019-04-04T16:35:06.533Z,100111.47
2019-04-04T16:37:35.565Z,100096.09
2019-04-04T16:40:09.255Z,100088.88
2019-04-04T16:42:35.942Z,100088.92
2019-04-04T16:45:07.661Z,100098.47
2019-04-04T16:47:36.346Z,100103.49
2019-04-04T16:50:07.350Z,100093.31
2019-04-04T16:52:36.038Z,100086.39
2019-04-04T16:55:06.728Z,100083.89
2019-04-04T16:57:36.368Z,100086.80
2019-04-04T17:00:07.872Z,100099.13
2019-04-04T17:02:36.524Z,100108.91
2019-04-04T17:05:05.889Z,100104.65
2019-04-04T17:07:34.539Z,100119.22
2019-04-04T17:10:03.896Z,100141.28
2019-04-04T17:12:32.460Z,100139.70
2019-04-04T17:15:01.037Z,100152.96
2019-04-04T17:17:29.947Z,100169.64
2019-04-04T17:19:58.552Z,100161.44
2019-04-04T17:22:29.199Z,100171.36
2019-04-04T17:24:57.482Z,100179.66
2019-04-04T17:27:26.040Z,100184.98
2019-04-04T17:29:54.638Z,100179.80
2019-04-04T17:32:23.654Z,100197.88
2019-04-04T17:34:52.498Z,100200.47
2019-04-04T17:37:21.512Z,100199.94
2019-04-04T17:39:50.203Z,100185.50
2019-04-04T17:42:29.591Z,100197.78
2019-04-04T17:44:51.751Z,100196.75
2019-04-04T17:47:20.334Z,100187.38
2019-04-04T17:49:49.238Z,100173.27
2019-04-04T17:52:18.255Z,100185.77
2019-04-04T17:54:46.906Z,100193.19
2019-04-04T17:57:15.603Z,100205.44
2019-04-04T17:59:44.311Z,100213.23
2019-04-04T18:02:12.900Z,100216.91
2019-04-04T18:04:48.126Z,100212.43
2019-04-04T18:07:11.922Z,100213.06
2019-04-04T18:09:40.491Z,100201.50
2019-04-04T18:12:09.126Z,100202.10
2019-04-04T18:14:37.740Z,100201.91
2019-04-04T18:17:06.374Z,100197.83
2019-04-04T18:19:35.063Z,100204.88
2019-04-04T18:22:03.707Z,100206.16
2019-04-04T18:24:32.300Z,100211.53
2019-04-04T18:27:00.980Z,100220.37
2019-04-04T18:29:29.856Z,100227.81
2019-04-04T18:31:58.476Z,100244.16
2019-04-04T18:34:27.068Z,100243.08
2019-04-04T18:36:55.599Z,100252.20
2019-04-04T18:39:26.449Z,100260.86
2019-04-04T18:41:54.476Z,100266.28
2019-04-04T18:44:23.079Z,100278.02
2019-04-04T18:46:51.604Z,100282.67
2019-04-04T18:49:20.233Z,100281.77
2019-04-04T18:51:48.770Z,100273.92
2019-04-04T18:54:17.306Z,100266.64
2019-04-04T18:56:45.817Z,100255.61
2019-04-04T18:59:14.437Z,100245.59
2019-04-04T19:01:43.021Z,100252.78
2019-04-04T19:04:11.642Z,100265.64
2019-04-04T19:06:40.310Z,100269.81
2019-04-04T19:09:15.059Z,100260.80
2019-04-04T19:11:41.873Z,100254.94
2019-04-04T19:14:10.473Z,100263.65
2019-04-04T19:16:39.171Z,100267.96
2019-04-04T19:19:08.540Z,100276.58
2019-04-04T19:21:37.133Z,100276.58
2019-04-04T19:24:05.694Z,100268.62
2019-04-04T19:26:34.352Z,100270.70
2019-04-04T19:29:02.960Z,100273.23
2019-04-04T19:31:31.601Z,100267.35
2019-04-04T19:34:00.215Z,100274.41
2019-04-04T19:36:28.742Z,100284.83
2019-04-04T19:38:57.258Z,100282.86
2019-04-04T19:41:25.887Z,100283.84
2019-04-04T19:43:54.522Z,100281.89
2019-04-04T19:46:23.111Z,100273.95
2019-04-04T19:48:51.732Z,100272.25
2019-04-04T19:51:20.209Z,100274.85
2019-04-04T19:53:48.913Z,100289.66
2019-04-04T19:56:17.452Z,100283.05
2019-04-04T19:58:46.096Z,100292.98
2019-04-04T20:01:14.731Z,100292.98
2019-04-04T20:03:43.367Z,100296.55
2019-04-04T20:06:12.014Z,100292.67
2019-04-04T20:08:40.638Z,100286.17
2019-04-04T20:11:09.436Z,100288.53
2019-04-04T20:13:38.031Z,100294.91
2019-04-04T20:16:06.600Z,100299.92
2019-04-04T20:18:35.267Z,100292.07
2019-04-04T20:21:03.814Z,100295.52
2019-04-04T20:23:32.439Z,100302.52
2019-04-04T20:26:01.080Z,100300.74
2019-04-04T20:28:29.608Z,100303.39
2019-04-04T20:30:58.400Z,100304.50
2019-04-04T20:33:26.951Z,100313.18
2019-04-04T20:35:55.503Z,100317.78
2019-04-04T20:38:24.093Z,100317.56
2019-04-04T20:40:53.097Z,100317.56
2019-04-04T20:43:21.686Z,100314.97
2019-04-04T20:45:50.336Z,100319.09
2019-04-04T20:48:18.975Z,100325.03
2019-04-04T20:50:47.492Z,100324.94
2019-04-04T20:53:16.072Z,100321.95
2019-04-04T20:55:44.720Z,100323.00
2019-04-04T20:58:13.299Z,100328.54
2019-04-04T21:00:41.925Z,100330.89
2019-04-04T21:03:10.580Z,100334.63
2019-04-04T21:05:39.060Z,100321.78
2019-04-04T21:08:07.569Z,100312.50
2019-04-04T21:10:36.209Z,100318.17
2019-04-04T21:13:04.791Z,100315.53
2019-04-04T21:15:33.447Z,100314.95
2019-04-04T21:18:02.010Z,100323.58
2019-04-04T21:20:30.960Z,100335.09
2019-04-04T21:22:59.574Z,100345.23
2019-04-04T21:25:28.182Z,100340.78
2019-04-04T21:27:56.719Z,100343.42
2019-04-04T21:30:25.338Z,100349.17
2019-04-04T21:32:53.848Z,100362.78
2019-04-04T21:35:22.481Z,100374.56
2019-04-04T21:37:51.068Z,100380.09
2019-04-04T21:40:19.699Z,100372.05
2019-04-04T21:42:48.360Z,100364.80
2019-04-04T21:45:16.991Z,100359.84
2019-04-04T21:47:45.595Z,100360.05
2019-04-04T21:50:14.270Z,100369.01
2019-04-04T21:52:42.825Z,100359.25
2019-04-04T21:55:11.515Z,100354.59
2019-04-04T21:57:40.804Z,100346.71
2019-04-04T22:00:10.921Z,100342.73
2019-04-04T22:02:39.552Z,100343.32
2019-04-04T22:05:08.632Z,100340.55
2019-04-04T22:07:37.211Z,100348.66
2019-04-04T22:10:07.894Z,100363.23
2019-04-04T22:12:36.535Z,100358.49
2019-04-04T22:15:06.894Z,100368.08
2019-04-04T22:17:35.513Z,100366.88
2019-04-04T22:20:05.635Z,100368.39
2019-04-04T22:22:34.263Z,100363.84
2019-04-04T22:25:02.952Z,100368.55
2019-04-04T22:27:31.458Z,100377.20
2019-04-04T22:30:00.010Z,100375.82
2019-04-04T22:32:28.530Z,100376.24
2019-04-04T22:34:57.093Z,100370.64
2019-04-04T22:37:25.596Z,100365.00
2019-04-04T22:39:54.367Z,100368.28
2019-04-04T22:42:23.046Z,100374.06
2019-04-04T22:44:51.650Z,100380.26
2019-04-04T22:47:20.279Z,100387.11
2019-04-04T22:49:48.860Z,100390.23
2019-04-04T22:52:17.414Z,100384.77
2019-04-04T22:54:45.927Z,100386.91
2019-04-04T22:57:14.463Z,100397.58
2019-04-04T22:59:42.995Z,100399.46
2019-04-04T23:02:12.422Z,100391.82
2019-04-04T23:04:40.925Z,100397.27
2019-04-04T23:07:09.384Z,100400.86
2019-04-04T23:09:37.888Z,100410.70
2019-04-04T23:12:06.446Z,100418.70
2019-04-04T23:14:47.502Z,100404.71
2019-04-04T23:17:05.378Z,100391.81
2019-04-04T23:19:34.085Z,100391.33
2019-04-04T23:22:02.671Z,100396.33
2019-04-04T23:24:31.298Z,100396.39
2019-04-04T23:26:59.784Z,100396.70
2019-04-04T23:29:28.390Z,100400.54
2019-04-04T23:31:56.977Z,100405.56
2019-04-04T23:34:25.562Z,100403.28
2019-04-04T23:36:54.078Z,100410.77
2019-04-04T23:39:22.594Z,100407.33
2019-04-04T23:41:51.210Z,100413.63
2019-04-04T23:44:19.681Z,100413.32
2019-04-04T23:46:48.301Z,100415.93
2019-04-04T23:49:16.842Z,100413.11
2019-04-04T23:51:45.474Z,100410.53
2019-04-04T23:54:14.048Z,100410.44
2019-04-04T23:56:43.055Z,100414.67
2019-04-04T23:59:11.689Z,100424.18
